createdAt,value
2023-04-02T00:00:30.565Z,9.80
2023-04-02T00:03:22.393Z,9.80
2023-04-02T00:06:39.996Z,9.70
2023-04-02T00:09:33.646Z,9.60
2023-04-02T00:12:22.264Z,9.60
2023-04-02T00:15:14.557Z,9.50
2023-04-02T00:18:05.115Z,9.50
2023-04-02T00:20:57.655Z,9.50
2023-04-02T00:23:46.754Z,9.40
2023-04-02T00:26:38.823Z,9.40
2023-04-02T00:29:27.772Z,9.30
2023-04-02T00:32:24.006Z,9.30
2023-04-02T00:35:22.062Z,9.20
2023-04-02T00:38:22.059Z,9.20
2023-04-02T00:41:17.731Z,9.20
2023-04-02T00:44:07.266Z,9.10
2023-04-02T00:46:58.556Z,9.10
2023-04-02T00:49:48.400Z,9.00
2023-04-02T00:52:39.632Z,9.00
2023-04-02T00:55:36.303Z,9.00
2023-04-02T00:58:30.009Z,9.00
2023-04-02T01:01:21.821Z,8.90
2023-04-02T01:04:29.753Z,8.80
2023-04-02T01:07:18.692Z,8.80
2023-04-02T01:10:25.106Z,8.70
2023-04-02T01:13:24.796Z,8.70
2023-04-02T01:16:22.440Z,8.70
2023-04-02T01:19:28.918Z,8.60
2023-04-02T01:22:22.828Z,8.60
2023-04-02T01:25:24.489Z,8.60
2023-04-02T01:28:20.600Z,8.60
2023-04-02T01:31:11.816Z,8.50
2023-04-02T01:34:01.001Z,8.50
2023-04-02T01:37:01.368Z,8.40
2023-04-02T01:40:09.879Z,8.40
2023-04-02T01:43:07.644Z,8.40
2023-04-02T01:45:58.720Z,8.30
2023-04-02T01:48:49.942Z,8.30
2023-04-02T01:51:43.706Z,8.20
2023-04-02T01:54:34.143Z,8.10
2023-04-02T01:57:23.102Z,8.10
2023-04-02T02:00:15.845Z,8.10
2023-04-02T02:03:08.536Z,8.10
2023-04-02T02:05:59.372Z,8.00
2023-04-02T02:08:50.856Z,8.00
2023-04-02T02:11:40.121Z,8.00
2023-04-02T02:14:30.326Z,8.00
2023-04-02T02:17:21.614Z,7.90
2023-04-02T02:20:12.942Z,7.90
2023-04-02T02:23:05.232Z,7.90
2023-04-02T02:25:57.698Z,7.90
2023-04-02T02:28:52.002Z,7.80
2023-04-02T02:31:43.005Z,7.70
2023-04-02T02:34:38.906Z,7.70
2023-04-02T02:37:32.446Z,7.60
2023-04-02T02:40:33.036Z,7.60
2023-04-02T02:43:23.336Z,7.60
2023-04-02T02:46:18.628Z,7.50
2023-04-02T02:49:08.563Z,7.60
2023-04-02T02:52:03.785Z,7.60
2023-04-02T02:54:55.791Z,7.60
2023-04-02T02:57:48.275Z,7.50
2023-04-02T03:00:38.360Z,7.50
2023-04-02T03:03:31.188Z,7.50
2023-04-02T03:06:20.687Z,7.50
2023-04-02T03:09:19.129Z,7.50
2023-04-02T03:12:18.038Z,7.50
2023-04-02T03:15:17.867Z,7.40
2023-04-02T03:18:12.109Z,7.40
2023-04-02T03:21:08.699Z,7.30
2023-04-02T03:24:01.520Z,7.30
2023-04-02T03:26:53.411Z,7.30
2023-04-02T03:29:45.076Z,7.30
2023-04-02T03:32:39.018Z,7.20
2023-04-02T03:35:33.558Z,7.20
2023-04-02T03:38:26.176Z,7.20
2023-04-02T03:41:21.134Z,7.10
2023-04-02T03:44:20.549Z,7.20
2023-04-02T03:47:15.655Z,7.20
2023-04-02T03:50:09.441Z,7.10
2023-04-02T03:52:58.859Z,7.20
2023-04-02T03:55:46.849Z,7.20
2023-04-02T03:58:40.624Z,7.20
2023-04-02T04:01:34.498Z,7.10
2023-04-02T04:04:24.227Z,7.10
2023-04-02T04:07:21.445Z,7.10
2023-04-02T04:10:16.767Z,7.00
2023-04-02T04:13:10.072Z,7.00
2023-04-02T04:16:03.767Z,7.00
2023-04-02T04:18:57.749Z,7.00
2023-04-02T04:21:47.054Z,7.00
2023-04-02T04:24:39.369Z,7.00
2023-04-02T04:27:34.624Z,7.00
2023-04-02T04:30:27.240Z,6.90
2023-04-02T04:33:22.796Z,6.90
2023-04-02T04:36:28.714Z,6.90
2023-04-02T04:39:23.443Z,6.90
2023-04-02T04:42:20.616Z,6.90
2023-04-02T04:45:18.681Z,6.90
2023-04-02T04:48:11.957Z,6.80
2023-04-02T04:51:02.551Z,6.80
2023-04-02T04:53:55.050Z,6.80
2023-04-02T04:56:48.219Z,6.70
2023-04-02T04:59:45.338Z,6.80
2023-04-02T05:02:39.405Z,6.80
2023-04-02T05:05:31.896Z,6.80
2023-04-02T05:08:24.086Z,6.70
2023-04-02T05:11:16.903Z,6.70
2023-04-02T05:14:07.836Z,6.70
2023-04-02T05:17:05.639Z,6.70
2023-04-02T05:19:58.730Z,6.70
2023-04-02T05:22:50.580Z,6.60
2023-04-02T05:25:39.629Z,6.60
2023-04-02T05:28:33.246Z,6.60
2023-04-02T05:31:26.223Z,6.60
2023-04-02T05:34:25.028Z,6.60
2023-04-02T05:37:18.616Z,6.50
2023-04-02T05:40:14.913Z,6.50
2023-04-02T05:43:04.588Z,6.50
2023-04-02T05:45:56.364Z,6.40
2023-04-02T05:48:47.474Z,6.30
2023-04-02T05:51:42.596Z,6.30
2023-04-02T05:54:35.181Z,6.30
2023-04-02T05:57:39.553Z,6.30
2023-04-02T06:00:51.921Z,6.30
2023-04-02T06:03:46.101Z,6.30
2023-04-02T06:06:51.590Z,6.30
2023-04-02T06:09:44.494Z,6.30
2023-04-02T06:12:36.415Z,6.30
2023-04-02T06:15:25.888Z,6.30
2023-04-02T06:18:17.856Z,6.30
2023-04-02T06:21:06.450Z,6.20
2023-04-02T06:23:58.061Z,6.20
2023-04-02T06:26:52.482Z,6.20
2023-04-02T06:29:45.099Z,6.20
2023-04-02T06:32:33.470Z,6.20
2023-04-02T06:35:21.518Z,6.00
2023-04-02T06:38:18.237Z,6.00
2023-04-02T06:41:16.691Z,5.90
2023-04-02T06:44:10.277Z,5.90
2023-04-02T06:47:00.895Z,5.90
2023-04-02T06:49:53.571Z,5.90
2023-04-02T06:52:47.022Z,5.90
2023-04-02T06:55:45.940Z,5.90
2023-04-02T06:58:35.585Z,5.90
2023-04-02T07:01:26.430Z,5.80
2023-04-02T07:04:14.763Z,5.80
2023-04-02T07:07:02.764Z,5.80
2023-04-02T07:09:51.237Z,5.80
2023-04-02T07:12:39.984Z,5.80
2023-04-02T07:15:29.624Z,5.80
2023-04-02T07:18:24.826Z,5.80
2023-04-02T07:21:12.802Z,5.80
2023-04-02T07:24:00.774Z,5.80
2023-04-02T07:26:48.859Z,5.70
2023-04-02T07:29:42.420Z,5.70
2023-04-02T07:32:31.932Z,5.70
2023-04-02T07:35:20.034Z,5.70
2023-04-02T07:38:08.043Z,5.70
2023-04-02T07:40:56.087Z,5.70
2023-04-02T07:43:44.526Z,5.70
2023-04-02T07:46:32.736Z,5.70
2023-04-02T07:49:22.872Z,5.80
2023-04-02T07:52:11.452Z,5.60
2023-04-02T07:54:59.380Z,5.60
2023-04-02T07:57:53.625Z,5.60
2023-04-02T08:00:41.531Z,5.60
2023-04-02T08:03:29.671Z,5.60
2023-04-02T08:06:19.152Z,5.60
2023-04-02T08:09:07.232Z,5.60
2023-04-02T08:11:55.243Z,5.60
2023-04-02T08:14:43.195Z,5.70
2023-04-02T08:17:31.586Z,5.60
2023-04-02T08:20:21.393Z,5.60
2023-04-02T08:23:17.866Z,5.60
2023-04-02T08:26:06.646Z,5.70
2023-04-02T08:28:54.859Z,5.70
2023-04-02T08:31:42.873Z,5.70
2023-04-02T08:34:30.881Z,5.60
2023-04-02T08:37:18.887Z,5.60
2023-04-02T08:40:17.145Z,5.70
2023-04-02T08:43:30.981Z,5.70
2023-04-02T08:46:27.808Z,5.60
2023-04-02T08:49:18.829Z,5.60
2023-04-02T08:52:06.976Z,5.60
2023-04-02T08:54:56.221Z,5.50
2023-04-02T08:57:52.360Z,5.50
2023-04-02T09:00:43.172Z,5.60
2023-04-02T09:03:36.622Z,5.60
2023-04-02T09:06:26.114Z,5.60
2023-04-02T09:09:16.481Z,5.60
2023-04-02T09:12:05.474Z,5.60
2023-04-02T09:15:12.200Z,5.60
2023-04-02T09:18:11.335Z,5.60
2023-04-02T09:20:59.390Z,5.60
2023-04-02T09:23:47.572Z,5.60
2023-04-02T09:26:36.886Z,5.70
2023-04-02T09:29:40.557Z,5.60
2023-04-02T09:32:46.722Z,5.60
2023-04-02T09:35:35.835Z,5.60
2023-04-02T09:38:28.148Z,5.60
2023-04-02T09:41:21.141Z,5.70
2023-04-02T09:44:24.429Z,5.70
2023-04-02T09:47:26.246Z,5.80
2023-04-02T09:50:33.870Z,5.80
2023-04-02T09:53:30.940Z,5.80
2023-04-02T09:56:21.756Z,5.70
2023-04-02T09:59:16.578Z,5.70
2023-04-02T10:02:06.287Z,5.70
2023-04-02T10:04:54.378Z,5.70
2023-04-02T10:07:46.005Z,5.70
2023-04-02T10:10:40.007Z,5.80
2023-04-02T10:13:31.487Z,5.80
2023-04-02T10:16:27.121Z,5.80
2023-04-02T10:19:23.946Z,5.90
2023-04-02T10:22:16.733Z,5.80
2023-04-02T10:25:14.920Z,5.80
2023-04-02T10:28:14.006Z,5.80
2023-04-02T10:31:09.293Z,5.80
2023-04-02T10:34:02.582Z,5.80
2023-04-02T10:36:54.331Z,5.80
2023-04-02T10:39:47.041Z,5.80
2023-04-02T10:42:40.672Z,5.80
2023-04-02T10:45:42.399Z,5.90
2023-04-02T10:48:39.179Z,5.80
2023-04-02T10:51:35.445Z,5.80
2023-04-02T10:54:38.182Z,5.90
2023-04-02T10:57:38.503Z,5.90
2023-04-02T11:00:28.969Z,5.90
2023-04-02T11:03:25.063Z,5.80
2023-04-02T11:06:18.268Z,5.80
2023-04-02T11:09:08.815Z,5.90
2023-04-02T11:11:59.069Z,5.90
2023-04-02T11:14:50.534Z,6.00
2023-04-02T11:17:39.645Z,6.10
2023-04-02T11:20:57.917Z,6.20
2023-04-02T11:23:58.413Z,6.20
2023-04-02T11:26:47.682Z,6.10
2023-04-02T11:29:39.389Z,6.10
2023-04-02T11:32:49.561Z,6.00
2023-04-02T11:35:40.990Z,6.00
2023-04-02T11:38:52.892Z,6.00
2023-04-02T11:42:04.594Z,6.00
2023-04-02T11:44:52.662Z,6.00
2023-04-02T11:47:40.758Z,6.00
2023-04-02T11:50:32.186Z,6.00
2023-04-02T11:53:23.003Z,6.10
2023-04-02T11:56:20.996Z,6.10
2023-04-02T11:59:16.885Z,6.20
2023-04-02T12:02:11.566Z,6.10
2023-04-02T12:05:18.098Z,6.20
2023-04-02T12:08:32.426Z,6.20
2023-04-02T12:11:32.820Z,6.20
2023-04-02T12:14:35.103Z,6.20
2023-04-02T12:17:28.937Z,6.20
2023-04-02T12:20:22.776Z,6.20
2023-04-02T12:23:19.889Z,6.30
2023-04-02T12:26:37.136Z,6.30
2023-04-02T12:29:27.164Z,6.30
2023-04-02T12:32:22.656Z,6.20
2023-04-02T12:35:29.512Z,6.30
2023-04-02T12:38:21.958Z,6.30
2023-04-02T12:41:24.046Z,6.20
2023-04-02T12:44:17.273Z,6.30
2023-04-02T12:47:06.167Z,6.20
2023-04-02T12:49:56.569Z,6.20
2023-04-02T12:52:46.578Z,6.20
2023-04-02T12:55:34.866Z,6.20
2023-04-02T12:58:30.675Z,6.20
2023-04-02T13:01:21.018Z,6.30
2023-04-02T13:04:12.314Z,6.30
2023-04-02T13:07:02.001Z,6.30
2023-04-02T13:09:52.340Z,6.30
2023-04-02T13:12:41.945Z,6.30
2023-04-02T13:15:33.654Z,6.30
2023-04-02T13:18:23.329Z,6.30
2023-04-02T13:21:28.544Z,6.30
2023-04-02T13:24:21.029Z,6.30
2023-04-02T13:27:12.071Z,6.30
2023-04-02T13:30:09.529Z,6.40
2023-04-02T13:32:58.902Z,6.40
2023-04-02T13:35:47.260Z,6.50
2023-04-02T13:38:35.468Z,6.50
2023-04-02T13:41:26.338Z,6.60
2023-04-02T13:44:23.992Z,6.60
2023-04-02T13:47:15.624Z,6.70
2023-04-02T13:50:05.234Z,6.80
2023-04-02T13:52:53.823Z,6.90
2023-04-02T13:55:43.574Z,7.00
2023-04-02T13:58:31.600Z,7.00
2023-04-02T14:01:20.575Z,7.00
2023-04-02T14:04:09.913Z,7.00
2023-04-02T14:07:34.704Z,7.10
2023-04-02T14:10:33.612Z,7.10
2023-04-02T14:13:33.296Z,7.10
2023-04-02T14:16:48.800Z,7.10
2023-04-02T14:19:51.725Z,7.10
2023-04-02T14:22:53.729Z,7.20
2023-04-02T14:25:50.409Z,7.30
2023-04-02T14:28:49.375Z,7.30
2023-04-02T14:31:41.951Z,7.30
2023-04-02T14:34:35.044Z,7.40
2023-04-02T14:37:30.432Z,7.30
2023-04-02T14:40:27.148Z,7.40
2023-04-02T14:43:21.268Z,7.40
2023-04-02T14:46:11.459Z,7.40
2023-04-02T14:49:04.802Z,7.40
2023-04-02T14:51:57.723Z,7.40
2023-04-02T14:54:51.952Z,7.40
2023-04-02T14:57:44.655Z,7.30
2023-04-02T15:00:38.544Z,7.30
2023-04-02T15:03:30.241Z,7.30
2023-04-02T15:06:21.406Z,7.40
2023-04-02T15:09:16.611Z,7.40
2023-04-02T15:12:11.091Z,7.30
2023-04-02T15:15:05.598Z,7.30
2023-04-02T15:17:53.594Z,7.30
2023-04-02T15:20:51.352Z,7.30
2023-04-02T15:23:54.990Z,7.20
2023-04-02T15:26:55.094Z,7.20
2023-04-02T15:29:49.411Z,7.10
2023-04-02T15:32:40.597Z,7.10
2023-04-02T15:35:37.511Z,7.00
2023-04-02T15:38:29.098Z,7.00
2023-04-02T15:41:25.283Z,7.00
2023-04-02T15:44:16.428Z,7.00
2023-04-02T15:47:12.212Z,6.90
2023-04-02T15:50:09.921Z,6.90
2023-04-02T15:53:07.727Z,7.00
2023-04-02T15:56:06.093Z,7.00
2023-04-02T15:59:18.858Z,7.00
2023-04-02T16:02:40.238Z,7.10
2023-04-02T16:05:39.605Z,6.90
2023-04-02T16:08:50.414Z,6.90
2023-04-02T16:11:39.512Z,6.80
2023-04-02T16:14:30.088Z,6.80
2023-04-02T16:17:25.341Z,6.80
2023-04-02T16:20:23.784Z,6.80
2023-04-02T16:23:17.365Z,6.80
2023-04-02T16:26:24.824Z,6.70
2023-04-02T16:29:51.107Z,6.70
2023-04-02T16:33:00.868Z,6.70
2023-04-02T16:35:58.712Z,6.70
2023-04-02T16:38:58.995Z,6.70
2023-04-02T16:41:58.439Z,6.70
2023-04-02T16:44:58.915Z,6.60
2023-04-02T16:47:57.894Z,6.60
2023-04-02T16:50:57.239Z,6.60
2023-04-02T16:54:02.182Z,6.60
2023-04-02T16:57:05.877Z,6.60
2023-04-02T17:00:01.905Z,6.50
2023-04-02T17:03:01.951Z,6.70
2023-04-02T17:05:57.303Z,6.60
2023-04-02T17:08:48.416Z,6.50
2023-04-02T17:11:45.519Z,6.60
2023-04-02T17:14:39.977Z,6.50
2023-04-02T17:17:27.971Z,6.40
2023-04-02T17:20:20.691Z,6.40
2023-04-02T17:23:13.612Z,6.40
2023-04-02T17:26:04.852Z,6.30
2023-04-02T17:28:55.044Z,6.30
2023-04-02T17:31:45.868Z,6.40
2023-04-02T17:34:33.932Z,6.30
2023-04-02T17:37:32.121Z,6.30
2023-04-02T17:40:26.238Z,6.40
2023-04-02T17:43:19.969Z,6.30
2023-04-02T17:46:18.656Z,6.30
2023-04-02T17:49:16.475Z,6.30
2023-04-02T17:52:11.714Z,6.30
2023-04-02T17:55:15.474Z,6.30
2023-04-02T17:58:11.253Z,6.30
2023-04-02T18:01:04.619Z,6.20
2023-04-02T18:04:04.188Z,6.20
2023-04-02T18:07:02.982Z,6.20
2023-04-02T18:10:00.342Z,6.20
2023-04-02T18:12:57.282Z,6.20
2023-04-02T18:16:01.673Z,6.10
2023-04-02T18:19:03.404Z,6.10
2023-04-02T18:22:00.769Z,6.00
2023-04-02T18:25:00.414Z,6.00
2023-04-02T18:28:00.450Z,5.90
2023-04-02T18:30:56.779Z,5.90
2023-04-02T18:34:04.152Z,5.90
2023-04-02T18:37:02.298Z,5.90
2023-04-02T18:40:04.132Z,5.90
2023-04-02T18:43:01.373Z,5.90
2023-04-02T18:45:56.803Z,5.90
2023-04-02T18:48:53.589Z,5.90
2023-04-02T18:51:43.022Z,5.90
2023-04-02T18:54:34.951Z,5.90
2023-04-02T18:57:27.296Z,5.90
2023-04-02T19:00:24.591Z,5.90
2023-04-02T19:03:19.342Z,6.00
2023-04-02T19:06:13.516Z,5.90
2023-04-02T19:09:07.973Z,6.00
2023-04-02T19:11:56.038Z,6.00
2023-04-02T19:14:44.057Z,6.00
2023-04-02T19:17:37.130Z,6.00
2023-04-02T19:20:34.394Z,6.10
2023-04-02T19:23:38.141Z,6.10
2023-04-02T19:26:34.631Z,6.10
2023-04-02T19:29:35.988Z,6.00
2023-04-02T19:32:33.741Z,6.00
2023-04-02T19:35:27.939Z,6.00
2023-04-02T19:38:25.037Z,6.10
2023-04-02T19:41:19.408Z,6.10
2023-04-02T19:44:13.221Z,6.10
2023-04-02T19:47:01.477Z,6.00
2023-04-02T19:49:49.539Z,6.00
2023-04-02T19:52:37.432Z,6.10
2023-04-02T19:55:27.326Z,6.10
2023-04-02T19:58:23.828Z,6.00
2023-04-02T20:01:13.520Z,6.10
2023-04-02T20:04:01.703Z,6.10
2023-04-02T20:06:49.744Z,6.10
2023-04-02T20:09:37.722Z,6.10
2023-04-02T20:12:25.723Z,6.00
2023-04-02T20:15:13.737Z,6.00
2023-04-02T20:18:03.400Z,6.00
2023-04-02T20:20:51.387Z,6.00
2023-04-02T20:23:39.371Z,6.00
2023-04-02T20:26:27.647Z,6.00
2023-04-02T20:29:15.887Z,5.90
2023-04-02T20:32:04.220Z,5.90
2023-04-02T20:34:54.261Z,6.00
2023-04-02T20:37:42.241Z,6.00
2023-04-02T20:40:30.174Z,6.00
2023-04-02T20:43:18.194Z,6.00
2023-04-02T20:46:10.048Z,6.00
2023-04-02T20:48:58.721Z,6.00
2023-04-02T20:51:48.600Z,6.00
2023-04-02T20:54:37.124Z,6.00
2023-04-02T20:57:26.194Z,6.00
2023-04-02T21:00:14.902Z,6.00
2023-04-02T21:03:03.227Z,6.00
2023-04-02T21:05:51.227Z,5.90
2023-04-02T21:08:41.180Z,5.90
2023-04-02T21:11:29.325Z,5.90
2023-04-02T21:14:18.077Z,5.90
2023-04-02T21:17:07.445Z,5.90
2023-04-02T21:19:55.593Z,5.90
2023-04-02T21:22:43.676Z,5.90
2023-04-02T21:25:32.998Z,5.90
2023-04-02T21:28:21.044Z,5.90
2023-04-02T21:31:11.477Z,5.90
2023-04-02T21:34:00.692Z,5.90
2023-04-02T21:36:50.446Z,5.90
2023-04-02T21:39:38.754Z,5.90
2023-04-02T21:42:28.897Z,5.90
2023-04-02T21:45:16.961Z,5.90
2023-04-02T21:48:05.150Z,5.90
2023-04-02T21:50:53.202Z,5.80
2023-04-02T21:53:42.201Z,5.80
2023-04-02T21:56:32.238Z,5.90
2023-04-02T21:59:21.598Z,5.90
2023-04-02T22:02:09.521Z,5.80
2023-04-02T22:04:57.438Z,5.80
2023-04-02T22:07:45.358Z,5.80
2023-04-02T22:10:33.413Z,5.80
2023-04-02T22:13:21.499Z,5.80
2023-04-02T22:16:13.906Z,5.70
2023-04-02T22:19:04.481Z,5.80
2023-04-02T22:21:53.110Z,5.70
2023-04-02T22:24:41.116Z,5.70
2023-04-02T22:27:29.074Z,5.70
2023-04-02T22:30:17.086Z,5.70
2023-04-02T22:33:06.947Z,5.70
2023-04-02T22:35:54.994Z,5.70
2023-04-02T22:38:42.947Z,5.70
2023-04-02T22:41:31.992Z,5.70
2023-04-02T22:44:19.922Z,5.60
2023-04-02T22:47:07.992Z,5.60
2023-04-02T22:49:57.265Z,5.60
2023-04-02T22:52:46.186Z,5.60
2023-04-02T22:55:34.280Z,5.60
2023-04-02T22:58:22.677Z,5.60
2023-04-02T23:01:13.416Z,5.60
2023-04-02T23:04:01.994Z,5.50
2023-04-02T23:06:51.498Z,5.50
2023-04-02T23:09:41.132Z,5.50
2023-04-02T23:12:29.109Z,5.50
2023-04-02T23:15:17.180Z,5.40
2023-04-02T23:18:05.721Z,5.40
2023-04-02T23:20:55.381Z,5.40
2023-04-02T23:23:44.774Z,5.40
2023-04-02T23:26:33.048Z,5.40
2023-04-02T23:29:21.294Z,5.40
2023-04-02T23:32:09.303Z,5.30
2023-04-02T23:34:57.186Z,5.30
2023-04-02T23:37:45.166Z,5.30
2023-04-02T23:40:34.603Z,5.30
2023-04-02T23:43:22.774Z,5.30
2023-04-02T23:46:11.133Z,5.20
2023-04-02T23:49:00.002Z,5.20
2023-04-02T23:51:48.252Z,5.20
2023-04-02T23:54:36.226Z,5.20
2023-04-02T23:57:25.511Z,5.10
